BIENTÔT MET'MAP
version 2.0 !

Prévue avant fin octobre,
la nouvelle version sera
plus belle, plus complète
et hébergée sur un serveur
3 fois plus puissant...
et toujours gratuite !


Pas compatible ?
Essayez la version Mobile !

SE CONNECTER : | S'inscrire | Disclaimer | Découvrir Orbifly |
Code OACI :
Lgende : VFR VFR Marginal IFR IFR Intensif IFR Trs Intensif
Visi :
Plafond :
>= 8 km
>= 3000ft
5 8 km
1000 3000 ft
1500m 5 km
500 1000 ft
800 1500m
200 500 ft
< 800m
< 200 ft

METAR - LIRU Urbe Airport - 29 May 2020 10:03 UTC
Data Sources :     NOAA   


- Altitude de l'aérodrome : 55 ft
- Pas de NOTAMs connus.


LIRU - Urbe Airport

Dernier METAR connu : 2015/08/10 16:50 LIRU 101650Z 04009KT 010V080 9999 SCT030 24/19 Q1011
TAF TAF LIRU
Valide du 29 à 07h jusqu'au 29 à 15h UTC


290701Z 2907/2915 VRB05KT 9999 SCT030
TEMPO 2911/2915 4000 TSRA

Source NOAA


MET'MAP, la Météo Aéronautique d'un coup d'oeil ! - Copyright ORBIFLY Décembre 2007

Développement & Programmation : Alexandra Zaïnal
Co-Développement : Marc-Olivier Méhu
Soutien technique & logistique : Manuel Goepfert
Conception & Financement : Baudouin d'Aumeries